createdAt,value
2022-11-26T00:02:03.993Z,20.60
2022-11-26T00:05:11.568Z,21.70
2022-11-26T00:08:18.858Z,22.10
2022-11-26T00:11:26.247Z,21.80
2022-11-26T00:14:33.454Z,22.00
2022-11-26T00:17:40.907Z,20.80
2022-11-26T00:20:48.259Z,20.40
2022-11-26T00:23:55.647Z,22.80
2022-11-26T00:27:03.060Z,22.80
2022-11-26T00:30:10.030Z,23.90
2022-11-26T00:33:17.678Z,23.00
2022-11-26T00:36:24.841Z,23.00
2022-11-26T00:39:31.843Z,22.90
2022-11-26T00:42:39.453Z,22.00
2022-11-26T00:45:47.072Z,22.00
2022-11-26T00:48:53.954Z,21.40
2022-11-26T00:52:01.634Z,21.90
2022-11-26T00:55:08.555Z,20.70
2022-11-26T00:58:16.196Z,20.50
2022-11-26T01:01:23.958Z,21.80
2022-11-26T01:04:30.826Z,21.40
2022-11-26T01:07:38.754Z,19.60
2022-11-26T01:10:46.157Z,20.50
2022-11-26T01:13:53.389Z,21.30
2022-11-26T01:17:00.797Z,20.60
2022-11-26T01:20:08.297Z,20.40
2022-11-26T01:23:15.580Z,19.50
2022-11-26T01:26:22.957Z,20.70
2022-11-26T01:29:30.255Z,21.90
2022-11-26T01:32:37.621Z,22.20
2022-11-26T01:35:45.101Z,24.00
2022-11-26T01:38:52.323Z,21.60
2022-11-26T01:41:59.634Z,22.30
2022-11-26T01:45:06.802Z,22.80
2022-11-26T01:48:14.446Z,22.10
2022-11-26T01:51:22.326Z,21.70
2022-11-26T01:54:29.013Z,22.00
2022-11-26T01:57:36.258Z,21.90
2022-11-26T02:00:42.802Z,22.30
2022-11-26T02:03:50.151Z,22.90
2022-11-26T02:06:57.369Z,23.40
2022-11-26T02:10:03.840Z,23.30
2022-11-26T02:13:10.954Z,23.20
2022-11-26T02:16:18.227Z,22.20
2022-11-26T02:19:24.590Z,23.50
2022-11-26T02:22:31.850Z,22.30
2022-11-26T02:25:38.660Z,23.30
2022-11-26T02:28:45.422Z,22.00
2022-11-26T02:31:52.197Z,23.00
2022-11-26T02:34:59.120Z,21.10
2022-11-26T02:38:05.911Z,21.30
2022-11-26T02:41:12.660Z,21.30
2022-11-26T02:44:19.478Z,20.90
2022-11-26T02:47:26.269Z,20.20
2022-11-26T02:50:33.644Z,20.60
2022-11-26T02:53:40.064Z,21.30
2022-11-26T02:56:46.996Z,19.50
2022-11-26T02:59:53.867Z,18.80
2022-11-26T03:03:00.816Z,18.60
2022-11-26T03:06:08.040Z,17.90
2022-11-26T03:09:14.927Z,17.90
2022-11-26T03:12:21.614Z,17.10
2022-11-26T03:15:28.547Z,17.70
2022-11-26T03:18:35.904Z,16.20
2022-11-26T03:21:42.979Z,16.10
2022-11-26T03:24:49.460Z,16.80
2022-11-26T03:27:56.452Z,15.00
2022-11-26T03:31:03.311Z,14.50
2022-11-26T03:34:10.161Z,15.30
2022-11-26T03:37:17.134Z,14.60
2022-11-26T03:40:23.987Z,13.30
2022-11-26T03:43:30.836Z,15.00
2022-11-26T03:46:37.574Z,14.10
2022-11-26T03:49:44.034Z,13.60
2022-11-26T03:52:51.345Z,15.00
2022-11-26T03:55:58.156Z,13.80
2022-11-26T03:59:05.047Z,15.30
2022-11-26T04:02:12.166Z,16.00
2022-11-26T04:05:18.606Z,14.30
2022-11-26T04:08:25.888Z,14.00
2022-11-26T04:11:33.308Z,13.40
2022-11-26T04:14:40.091Z,14.10
2022-11-26T04:17:47.260Z,14.10
2022-11-26T04:20:54.491Z,14.10
2022-11-26T04:24:00.965Z,15.20
2022-11-26T04:27:08.101Z,16.20
2022-11-26T04:30:14.581Z,15.00
2022-11-26T04:33:21.361Z,15.90
2022-11-26T04:36:28.500Z,15.30
2022-11-26T04:39:34.886Z,14.50
2022-11-26T04:42:42.164Z,14.10
2022-11-26T04:45:49.354Z,14.50
2022-11-26T04:48:55.735Z,14.80
2022-11-26T04:52:02.494Z,15.00
2022-11-26T04:55:09.677Z,15.80
2022-11-26T04:58:16.156Z,14.60
2022-11-26T05:01:23.411Z,15.40
2022-11-26T05:04:30.184Z,14.70
2022-11-26T05:07:37.192Z,15.60
2022-11-26T05:10:44.328Z,14.50
2022-11-26T05:13:51.218Z,13.40
2022-11-26T05:16:58.184Z,13.10
2022-11-26T05:20:05.469Z,12.70
2022-11-26T05:23:12.197Z,11.20
2022-11-26T05:26:18.980Z,12.20
2022-11-26T05:29:25.850Z,11.60
2022-11-26T05:32:32.932Z,12.60
2022-11-26T05:35:39.762Z,12.00
2022-11-26T05:38:46.624Z,11.90
2022-11-26T05:41:53.355Z,12.50
2022-11-26T05:45:00.164Z,12.00
2022-11-26T05:48:06.965Z,13.90
2022-11-26T05:51:13.960Z,13.30
2022-11-26T05:54:20.505Z,14.60
2022-11-26T05:57:27.694Z,13.70
2022-11-26T06:00:34.566Z,14.20
2022-11-26T06:03:41.548Z,13.90
2022-11-26T06:06:48.847Z,14.00
2022-11-26T06:09:55.746Z,14.30
2022-11-26T06:13:02.777Z,14.10
2022-11-26T06:16:10.106Z,12.70
2022-11-26T06:19:16.797Z,14.50
2022-11-26T06:22:23.238Z,14.40
2022-11-26T06:25:30.552Z,15.80
2022-11-26T06:28:37.200Z,14.70
2022-11-26T06:31:44.405Z,13.60
2022-11-26T06:34:54.195Z,14.30
2022-11-26T06:38:00.952Z,14.20
2022-11-26T06:41:08.192Z,15.30
2022-11-26T06:44:15.352Z,14.50
2022-11-26T06:47:21.864Z,14.20
2022-11-26T06:50:28.671Z,14.40
2022-11-26T06:53:35.602Z,14.20
2022-11-26T06:56:42.514Z,15.50
2022-11-26T06:59:49.634Z,13.80
2022-11-26T07:02:56.575Z,14.50
2022-11-26T07:06:03.370Z,13.50
2022-11-26T07:09:10.545Z,12.50
2022-11-26T07:12:17.268Z,13.90
2022-11-26T07:15:24.217Z,13.40
2022-11-26T07:18:30.948Z,12.50
2022-11-26T07:21:37.728Z,13.00
2022-11-26T07:24:44.739Z,11.80
2022-11-26T07:27:51.478Z,13.00
2022-11-26T07:30:58.442Z,12.60
2022-11-26T07:34:05.567Z,12.90
2022-11-26T07:37:12.108Z,12.80
2022-11-26T07:40:18.939Z,13.20
2022-11-26T07:43:25.871Z,13.00
2022-11-26T07:46:33.003Z,13.90
2022-11-26T07:49:39.400Z,15.40
2022-11-26T07:52:46.281Z,15.50
2022-11-26T07:55:53.399Z,15.20
2022-11-26T07:59:00.232Z,15.90
2022-11-26T08:02:07.129Z,14.90
2022-11-26T08:05:14.163Z,15.20
2022-11-26T08:08:20.565Z,16.30
2022-11-26T08:11:27.965Z,15.30
2022-11-26T08:14:34.715Z,15.60
2022-11-26T08:17:41.665Z,13.80
2022-11-26T08:20:48.555Z,13.80
2022-11-26T08:23:55.536Z,14.00
2022-11-26T08:27:02.378Z,13.40
2022-11-26T08:30:09.427Z,13.90
2022-11-26T08:33:15.848Z,14.50
2022-11-26T08:36:22.818Z,13.30
2022-11-26T08:39:30.109Z,14.50
2022-11-26T08:42:36.580Z,15.50
2022-11-26T08:45:43.947Z,14.70
2022-11-26T08:48:50.795Z,15.40
2022-11-26T08:51:57.561Z,13.00
2022-11-26T08:55:04.456Z,13.20
2022-11-26T08:58:11.332Z,13.40
2022-11-26T09:01:18.288Z,12.90
2022-11-26T09:04:25.003Z,13.30
2022-11-26T09:07:31.766Z,13.40
2022-11-26T09:10:38.384Z,12.80
2022-11-26T09:13:44.973Z,13.50
2022-11-26T09:16:52.225Z,14.70
2022-11-26T09:19:59.464Z,16.10
2022-11-26T09:23:06.016Z,14.00
2022-11-26T09:26:13.498Z,13.70
2022-11-26T09:29:20.617Z,13.70
2022-11-26T09:32:33.667Z,13.20
2022-11-26T09:35:30.749Z,13.40
2022-11-26T09:38:37.426Z,13.60
2022-11-26T09:41:44.790Z,13.60
2022-11-26T09:44:52.260Z,13.30
2022-11-26T09:47:59.011Z,13.50
2022-11-26T09:51:06.351Z,13.30
2022-11-26T09:54:13.752Z,13.80
2022-11-26T09:57:20.381Z,13.60
2022-11-26T10:00:27.603Z,12.90
2022-11-26T10:03:34.813Z,12.00
2022-11-26T10:06:41.434Z,11.80
2022-11-26T10:09:48.944Z,11.00
2022-11-26T10:13:18.135Z,11.20
2022-11-26T10:16:00.197Z,11.60
2022-11-26T10:19:07.236Z,12.00
2022-11-26T10:22:14.205Z,11.30
2022-11-26T10:25:21.157Z,11.40
2022-11-26T10:28:28.281Z,12.90
2022-11-26T10:31:35.453Z,11.50
2022-11-26T10:34:42.708Z,11.20
2022-11-26T10:37:50.034Z,11.30
2022-11-26T10:40:57.320Z,13.00
2022-11-26T10:44:04.392Z,10.40
2022-11-26T10:47:11.403Z,11.70
2022-11-26T10:50:46.466Z,10.80
2022-11-26T10:53:22.659Z,11.10
2022-11-26T10:56:30.173Z,10.70
2022-11-26T10:59:37.784Z,10.90
2022-11-26T11:02:44.760Z,11.90
2022-11-26T11:05:51.876Z,10.90
2022-11-26T11:08:58.346Z,11.40
2022-11-26T11:12:05.756Z,11.20
2022-11-26T11:15:12.618Z,10.60
2022-11-26T11:18:19.148Z,10.60
2022-11-26T11:21:25.929Z,11.30
2022-11-26T11:24:32.368Z,10.80
2022-11-26T11:27:39.630Z,10.60
2022-11-26T11:30:46.222Z,9.40
2022-11-26T11:33:53.341Z,10.50
2022-11-26T11:37:00.779Z,10.40
2022-11-26T11:40:10.772Z,9.20
2022-11-26T11:43:09.513Z,10.50
2022-11-26T11:46:17.209Z,9.40
2022-11-26T11:49:25.945Z,9.50
2022-11-26T11:52:33.355Z,9.00
2022-11-26T11:55:40.236Z,8.80
2022-11-26T11:58:47.297Z,9.60
2022-11-26T12:01:54.181Z,12.70
2022-11-26T12:05:01.108Z,9.70
2022-11-26T12:08:08.468Z,8.70
2022-11-26T12:11:15.250Z,8.00
2022-11-26T12:14:22.049Z,9.30
2022-11-26T12:17:33.072Z,8.90
2022-11-26T12:20:29.557Z,9.30
2022-11-26T12:23:36.723Z,8.90
2022-11-26T12:26:43.604Z,8.90
2022-11-26T12:29:50.190Z,8.00
2022-11-26T12:32:57.494Z,9.30
2022-11-26T12:36:04.375Z,9.70
2022-11-26T12:39:11.965Z,10.80
2022-11-26T12:42:19.105Z,9.00
2022-11-26T12:45:25.621Z,9.40
2022-11-26T12:48:32.796Z,9.20
2022-11-26T12:51:39.998Z,9.10
2022-11-26T12:54:46.468Z,9.80
2022-11-26T12:57:53.669Z,10.40
2022-11-26T13:01:00.614Z,10.40
2022-11-26T13:04:37.353Z,9.40
2022-11-26T13:07:11.624Z,9.80
2022-11-26T13:10:18.531Z,9.60
2022-11-26T13:13:25.102Z,9.50
2022-11-26T13:16:32.282Z,8.80
2022-11-26T13:19:39.550Z,8.50
2022-11-26T13:22:46.620Z,8.90
2022-11-26T13:25:53.645Z,9.20
2022-11-26T13:29:00.444Z,7.50
2022-11-26T13:32:12.689Z,8.40
2022-11-26T13:35:09.732Z,7.90
2022-11-26T13:38:16.479Z,8.70
2022-11-26T13:41:23.196Z,8.00
2022-11-26T13:44:30.117Z,8.70
2022-11-26T13:47:37.298Z,8.60
2022-11-26T13:50:44.179Z,8.30
2022-11-26T13:53:51.011Z,8.80
2022-11-26T13:56:58.139Z,8.20
2022-11-26T14:00:04.530Z,8.10
2022-11-26T14:03:11.732Z,8.70
2022-11-26T14:06:19.016Z,8.00
2022-11-26T14:09:25.481Z,8.10
2022-11-26T14:12:32.473Z,8.40
2022-11-26T14:15:39.384Z,8.20
2022-11-26T14:18:46.164Z,7.40
2022-11-26T14:21:53.464Z,8.70
2022-11-26T14:25:00.172Z,8.20
2022-11-26T14:28:06.887Z,8.90
2022-11-26T14:31:13.854Z,8.60
2022-11-26T14:34:20.947Z,9.30
2022-11-26T14:37:27.745Z,9.10
2022-11-26T14:40:34.519Z,8.40
2022-11-26T14:43:42.035Z,9.30
2022-11-26T14:46:48.989Z,8.30
2022-11-26T14:49:55.701Z,8.60
2022-11-26T14:53:02.946Z,10.00
2022-11-26T14:56:09.761Z,9.40
2022-11-26T14:59:16.540Z,9.20
2022-11-26T15:02:23.892Z,8.90
2022-11-26T15:05:30.532Z,8.30
2022-11-26T15:08:37.766Z,8.80
2022-11-26T15:11:44.794Z,9.10
2022-11-26T15:14:51.214Z,8.70
2022-11-26T15:17:58.431Z,9.40
2022-11-26T15:21:05.155Z,9.80
2022-11-26T15:24:12.062Z,10.60
2022-11-26T15:27:19.154Z,10.70
2022-11-26T15:30:25.989Z,10.30
2022-11-26T15:33:32.859Z,10.00
2022-11-26T15:36:39.717Z,11.30
2022-11-26T15:39:47.038Z,11.20
2022-11-26T15:42:53.980Z,10.10
2022-11-26T15:46:00.741Z,10.10
2022-11-26T15:49:07.861Z,10.00
2022-11-26T15:52:14.330Z,10.30
2022-11-26T15:55:21.685Z,10.40
2022-11-26T15:58:29.033Z,9.00
2022-11-26T16:01:35.693Z,11.00
2022-11-26T16:04:43.129Z,10.80
2022-11-26T16:07:50.396Z,12.80
2022-11-26T16:10:56.945Z,11.40
2022-11-26T16:14:04.205Z,10.70
2022-11-26T16:17:11.081Z,13.00
2022-11-26T16:20:17.906Z,12.90
2022-11-26T16:23:25.167Z,11.40
2022-11-26T16:26:32.294Z,11.10
2022-11-26T16:29:38.884Z,10.90
2022-11-26T16:32:45.998Z,12.90
2022-11-26T16:35:52.859Z,13.80
2022-11-26T16:38:59.609Z,14.60
2022-11-26T16:42:06.799Z,15.40
2022-11-26T16:45:13.619Z,13.60
2022-11-26T16:48:20.510Z,16.40
2022-11-26T16:51:27.450Z,19.30
2022-11-26T16:54:34.578Z,17.90
2022-11-26T16:57:41.467Z,15.00
2022-11-26T17:00:48.270Z,15.80
2022-11-26T17:03:55.616Z,14.10
2022-11-26T17:07:02.230Z,15.50
2022-11-26T17:10:09.372Z,14.50
2022-11-26T17:13:16.853Z,16.20
2022-11-26T17:16:23.539Z,17.60
2022-11-26T17:19:30.714Z,21.90
2022-11-26T17:22:37.496Z,19.30
2022-11-26T17:25:44.265Z,23.60
2022-11-26T17:28:51.620Z,31.00
2022-11-26T17:31:58.358Z,24.10
2022-11-26T17:35:05.156Z,24.60
2022-11-26T17:38:12.045Z,23.20
2022-11-26T17:41:19.228Z,22.40
2022-11-26T17:44:26.119Z,21.10
2022-11-26T17:47:33.018Z,21.00
2022-11-26T17:50:40.398Z,22.60
2022-11-26T17:53:47.548Z,23.10
2022-11-26T17:56:54.508Z,21.70
2022-11-26T18:00:02.052Z,22.70
2022-11-26T18:03:08.866Z,23.00
2022-11-26T18:06:16.250Z,21.60
2022-11-26T18:09:23.753Z,20.40
2022-11-26T18:12:30.560Z,21.60
2022-11-26T18:15:37.941Z,23.60
2022-11-26T18:18:45.391Z,23.40
2022-11-26T18:21:52.071Z,23.00
2022-11-26T18:24:59.638Z,24.10
2022-11-26T18:28:07.094Z,28.00
2022-11-26T18:31:14.186Z,33.60
2022-11-26T18:34:21.642Z,30.40
2022-11-26T18:37:28.452Z,28.20
2022-11-26T18:40:35.504Z,29.40
2022-11-26T18:43:42.896Z,28.20
2022-11-26T18:46:49.896Z,30.50
2022-11-26T18:49:56.934Z,31.00
2022-11-26T18:53:03.828Z,28.80
2022-11-26T18:56:10.871Z,28.30
2022-11-26T18:59:17.813Z,26.50
2022-11-26T19:02:24.469Z,26.60
2022-11-26T19:05:31.759Z,26.60
2022-11-26T19:08:41.469Z,25.70
2022-11-26T19:11:48.669Z,27.60
2022-11-26T19:14:57.020Z,26.40
2022-11-26T19:18:04.071Z,29.20
2022-11-26T19:21:11.312Z,24.50
2022-11-26T19:24:18.371Z,24.20
2022-11-26T19:27:24.931Z,25.30
2022-11-26T19:30:32.454Z,23.20
2022-11-26T19:33:39.602Z,22.70
2022-11-26T19:36:46.179Z,22.20
2022-11-26T19:39:53.403Z,22.10
2022-11-26T19:43:00.573Z,21.30
2022-11-26T19:46:07.183Z,28.10
2022-11-26T19:49:14.305Z,20.50
2022-11-26T19:52:21.625Z,21.80
2022-11-26T19:55:28.165Z,22.70
2022-11-26T19:58:35.722Z,21.70
2022-11-26T20:01:42.868Z,19.90
2022-11-26T20:04:49.856Z,21.50
2022-11-26T20:07:56.843Z,23.60
2022-11-26T20:11:03.836Z,25.20
2022-11-26T20:14:10.967Z,24.50
2022-11-26T20:17:18.204Z,23.90
2022-11-26T20:20:25.088Z,24.00
2022-11-26T20:23:32.075Z,22.70
2022-11-26T20:26:38.908Z,23.50
2022-11-26T20:29:46.283Z,23.40
2022-11-26T20:32:52.820Z,23.70
2022-11-26T20:35:59.760Z,22.30
2022-11-26T20:39:07.340Z,21.70
2022-11-26T20:42:14.541Z,20.90
2022-11-26T20:45:21.552Z,21.00
2022-11-26T20:48:28.659Z,21.00
2022-11-26T20:51:35.233Z,22.00
2022-11-26T20:54:42.566Z,21.10
2022-11-26T20:57:49.472Z,21.90
2022-11-26T21:00:56.092Z,21.90
2022-11-26T21:04:03.436Z,20.00
2022-11-26T21:07:10.343Z,18.60
2022-11-26T21:10:17.172Z,18.20
2022-11-26T21:13:24.364Z,18.80
2022-11-26T21:16:30.928Z,19.30
2022-11-26T21:19:38.514Z,20.60
2022-11-26T21:22:45.686Z,20.40
2022-11-26T21:25:52.217Z,19.70
2022-11-26T21:28:59.131Z,20.60
2022-11-26T21:32:06.267Z,20.40
2022-11-26T21:35:12.767Z,20.70
2022-11-26T21:38:25.258Z,22.40
2022-11-26T21:41:23.057Z,19.00
2022-11-26T21:44:29.491Z,19.70
2022-11-26T21:47:36.639Z,18.20
2022-11-26T21:50:43.572Z,18.30
2022-11-26T21:53:50.980Z,17.60
2022-11-26T21:56:58.310Z,18.10
2022-11-26T22:00:04.841Z,19.00
2022-11-26T22:03:12.043Z,18.00
2022-11-26T22:06:18.712Z,17.60
2022-11-26T22:09:25.424Z,17.20
2022-11-26T22:12:32.791Z,17.20
2022-11-26T22:15:39.609Z,18.20
2022-11-26T22:18:46.395Z,16.50
2022-11-26T22:21:53.383Z,18.00
2022-11-26T22:25:00.523Z,16.10
2022-11-26T22:28:07.426Z,16.50
2022-11-26T22:31:14.361Z,16.40
2022-11-26T22:34:21.544Z,16.50
2022-11-26T22:37:28.445Z,15.90
2022-11-26T22:40:35.285Z,17.20
2022-11-26T22:43:42.447Z,16.90
2022-11-26T22:46:48.935Z,16.90
2022-11-26T22:49:56.135Z,25.70
2022-11-26T22:53:02.760Z,30.10
2022-11-26T22:56:09.288Z,17.50
2022-11-26T22:59:16.286Z,16.60
2022-11-26T23:02:22.729Z,20.60
2022-11-26T23:05:29.359Z,18.30
2022-11-26T23:08:36.539Z,22.60
2022-11-26T23:11:43.020Z,21.50
2022-11-26T23:14:49.819Z,24.10
2022-11-26T23:17:56.979Z,17.50
2022-11-26T23:21:03.380Z,18.60
2022-11-26T23:24:10.549Z,18.60
2022-11-26T23:27:17.181Z,17.40
2022-11-26T23:30:23.990Z,17.30
2022-11-26T23:33:31.140Z,18.00
2022-11-26T23:36:37.912Z,17.00
2022-11-26T23:39:44.418Z,17.80
2022-11-26T23:42:51.274Z,16.80
2022-11-26T23:45:58.572Z,17.60
2022-11-26T23:49:05.337Z,17.90
2022-11-26T23:52:12.223Z,17.60
2022-11-26T23:55:19.341Z,18.60
2022-11-26T23:58:26.073Z,17.90
